Jia Yang 6 — BAIX — position and weather

sailwx.info

Track history (hours):
 
Tides and Currents Weather Stations Pressure Air Temp Water Temp Dewpoint Dewpoint Depression Visibility Wind Speed Wind Dir Waves Ship Positions

Jia Yang 6

Last reported at 2017-Dec-11 16:08 UTC. Time now 2017-Dec-15 15:51 UTC.
Position N 31°05' E 122°02'.

Length 130 m; draft 5 m.

Type: Tanker. MMSI: 413202970.

Date/timePositionNaut miles runAvg speedWind from/ knotsBaromVisibWave heightAir tempDewpointWater temp
2017-Dec-11 16:08N 31°05' E 122°02'211.8
2017-Dec-11 15:57N 31°05' E 121°59'1012.9
2017-Dec-11 15:13N 31°11' E 121°50'313.2
2017-Dec-11 15:00N 31°13' E 121°48'2111.3
2017-Dec-11 13:11N 31°26' E 121°29'210.1
2017-Dec-11 13:00N 31°27' E 121°28'3 6.9
2017-Dec-11 12:30N 31°29' E 121°24'0 0.1
2017-Dec-11 12:00N 31°29' E 121°24'0 0.0
2017-Dec-11 11:07N 31°29' E 121°24'0 0.0
2017-Dec-11 10:40N 31°29' E 121°24'0 0.0
2017-Dec-11 10:28N 31°29' E 121°24'0 0.0
2017-Dec-11 09:55N 31°29' E 121°24'0 0.0
2017-Dec-11 09:28N 31°29' E 121°24'0 0.0
2017-Dec-11 08:55N 31°29' E 121°24'0 0.0
2017-Dec-11 08:28N 31°29' E 121°24'0 0.0
2017-Dec-11 07:46N 31°29' E 121°24'0 0.0
2017-Dec-11 06:52N 31°29' E 121°24'0 0.0
2017-Dec-11 06:16N 31°29' E 121°24'0 0.0
2017-Dec-11 05:49N 31°29' E 121°24'0 0.0
2017-Dec-11 05:13N 31°29' E 121°24'0 0.0
2017-Dec-11 04:43N 31°29' E 121°24'0 0.0
2017-Dec-11 04:22N 31°29' E 121°24'0 0.0
2017-Dec-11 03:55N 31°29' E 121°24'0 0.0
2017-Dec-11 03:22N 31°29' E 121°24'0 0.0
2017-Dec-11 02:40N 31°29' E 121°24'0 0.0
2017-Dec-11 02:28N 31°29' E 121°24'0 0.0
2017-Dec-11 01:58N 31°29' E 121°24'0 0.0
2017-Dec-11 01:21N 31°29' E 121°24'0 0.0
2017-Dec-11 00:54N 31°29' E 121°24'0 0.0
2017-Dec-10 23:18N 31°29' E 121°24'0 0.0
2017-Dec-10 22:54N 31°29' E 121°24'0 0.0
2017-Dec-10 21:57N 31°29' E 121°24'0 0.0
2017-Dec-10 21:30N 31°29' E 121°24'0 0.0
2017-Dec-10 21:00N 31°29' E 121°24'0 0.0
2017-Dec-10 20:24N 31°29' E 121°24'0 0.0
2017-Dec-10 20:00N 31°29' E 121°24'0 0.0
2017-Dec-10 19:30N 31°29' E 121°24'0 0.0
2017-Dec-10 19:00N 31°29' E 121°24'0 0.0
2017-Dec-10 18:30N 31°29' E 121°24'0 0.0
2017-Dec-10 18:01N 31°29' E 121°24'0 0.0
2017-Dec-10 17:30N 31°29' E 121°24'0 0.0
2017-Dec-10 17:00N 31°29' E 121°24'0 0.0
2017-Dec-10 16:24N 31°29' E 121°24'0 0.0
2017-Dec-10 15:54N 31°29' E 121°24'0 0.0
2017-Dec-10 15:30N 31°29' E 121°24'0 0.0
2017-Dec-10 14:54N 31°29' E 121°24'0 0.0
2017-Dec-10 13:24N 31°29' E 121°24'0 0.0
2017-Dec-10 12:45N 31°29' E 121°24'0 0.0
2017-Dec-10 11:33N 31°29' E 121°24'0 0.0
2017-Dec-10 11:27N 31°29' E 121°24'0 0.0
2017-Dec-10 10:51N 31°29' E 121°24'0 0.0
2017-Dec-10 09:24N 31°29' E 121°24'24 0.9
2017-Dec-09 07:19N 31°15' E 121°47'713.1
2017-Dec-09 06:48N 31°10' E 121°53'412.5
2017-Dec-09 06:30N 31°08' E 121°56'611.6
2017-Dec-09 05:59N 31°05' E 122°02'611.5
2017-Dec-09 05:29N 31°03' E 122°09'611.6
2017-Dec-09 05:00N 31°03' E 122°15'399 8.1
2017-Dec-07 03:55N 37°42' E 121°60'7 9.8
2017-Dec-07 03:12N 37°45' E 121°51'210.3
2017-Dec-07 03:00N 37°45' E 121°49'5 9.9
2017-Dec-07 02:30N 37°47' E 121°43'5 9.8
2017-Dec-07 02:00N 37°48' E 121°37'5 9.9
2017-Dec-07 01:30N 37°50' E 121°31'510.0
2017-Dec-07 01:00N 37°51' E 121°25'5 9.9
2017-Dec-07 00:30N 37°53' E 121°19'  
2017-Dec-04 09:42N 37°32' E 119°51'0 0.0
2017-Dec-04 05:51N 37°32' E 119°51'0 0.0
2017-Dec-04 05:21N 37°32' E 119°51'0 0.0
2017-Dec-04 04:06N 37°32' E 119°51'0 0.1
2017-Dec-04 03:33N 37°32' E 119°51'0 0.1
2017-Dec-04 03:30N 37°32' E 119°51'0 0.0
2017-Dec-04 02:51N 37°32' E 119°51'0 0.0
2017-Dec-04 02:27N 37°32' E 119°51'0 0.0
2017-Dec-04 02:00N 37°32' E 119°51'0 0.0
2017-Dec-04 01:18N 37°32' E 119°51'0 0.0
2017-Dec-04 01:00N 37°32' E 119°51'0 0.0
2017-Dec-03 23:15N 37°32' E 119°51'0 0.1
2017-Dec-03 22:06N 37°32' E 119°51'0 0.0
2017-Dec-03 09:55N 37°32' E 119°51'70 8.2
2017-Dec-03 01:21N 37°56' E 121°15'510.4
2017-Dec-03 00:53N 37°55' E 121°21'410.2
2017-Dec-03 00:30N 37°53' E 121°26'510.1
2017-Dec-03 00:00N 37°52' E 121°32'510.2
2017-Dec-02 23:30N 37°50' E 121°38'510.3
2017-Dec-02 23:00N 37°49' E 121°44'510.4
2017-Dec-02 22:31N 37°47' E 121°50'  
Track history (hours):
 
Tides and Currents Weather Stations Pressure Air Temp Water Temp Dewpoint Dewpoint Depression Visibility Wind Speed Wind Dir Waves Ship Positions

Jia Yang 6

Last reported at 2017-Dec-11 16:08 UTC. Time now 2017-Dec-15 15:51 UTC.
Position N 31°05' E 122°02'.

Length 130 m; draft 5 m.

Type: Tanker. MMSI: 413202970.

Date/timePositionNaut miles runAvg speedWind from/ knotsBaromVisibWave heightAir tempDewpointWater temp
2017-Dec-11 16:08N 31°05' E 122°02'211.8
2017-Dec-11 15:57N 31°05' E 121°59'1012.9
2017-Dec-11 15:13N 31°11' E 121°50'313.2
2017-Dec-11 15:00N 31°13' E 121°48'2111.3
2017-Dec-11 13:11N 31°26' E 121°29'210.1
2017-Dec-11 13:00N 31°27' E 121°28'3 6.9
2017-Dec-11 12:30N 31°29' E 121°24'0 0.1
2017-Dec-11 12:00N 31°29' E 121°24'0 0.0
2017-Dec-11 11:07N 31°29' E 121°24'0 0.0
2017-Dec-11 10:40N 31°29' E 121°24'0 0.0
2017-Dec-11 10:28N 31°29' E 121°24'0 0.0
2017-Dec-11 09:55N 31°29' E 121°24'0 0.0
2017-Dec-11 09:28N 31°29' E 121°24'0 0.0
2017-Dec-11 08:55N 31°29' E 121°24'0 0.0
2017-Dec-11 08:28N 31°29' E 121°24'0 0.0
2017-Dec-11 07:46N 31°29' E 121°24'0 0.0
2017-Dec-11 06:52N 31°29' E 121°24'0 0.0
2017-Dec-11 06:16N 31°29' E 121°24'0 0.0
2017-Dec-11 05:49N 31°29' E 121°24'0 0.0
2017-Dec-11 05:13N 31°29' E 121°24'0 0.0
2017-Dec-11 04:43N 31°29' E 121°24'0 0.0
2017-Dec-11 04:22N 31°29' E 121°24'0 0.0
2017-Dec-11 03:55N 31°29' E 121°24'0 0.0
2017-Dec-11 03:22N 31°29' E 121°24'0 0.0
2017-Dec-11 02:40N 31°29' E 121°24'0 0.0
2017-Dec-11 02:28N 31°29' E 121°24'0 0.0
2017-Dec-11 01:58N 31°29' E 121°24'0 0.0
2017-Dec-11 01:21N 31°29' E 121°24'0 0.0
2017-Dec-11 00:54N 31°29' E 121°24'0 0.0
2017-Dec-10 23:18N 31°29' E 121°24'0 0.0
2017-Dec-10 22:54N 31°29' E 121°24'0 0.0
2017-Dec-10 21:57N 31°29' E 121°24'0 0.0
2017-Dec-10 21:30N 31°29' E 121°24'0 0.0
2017-Dec-10 21:00N 31°29' E 121°24'0 0.0
2017-Dec-10 20:24N 31°29' E 121°24'0 0.0
2017-Dec-10 20:00N 31°29' E 121°24'0 0.0
2017-Dec-10 19:30N 31°29' E 121°24'0 0.0
2017-Dec-10 19:00N 31°29' E 121°24'0 0.0
2017-Dec-10 18:30N 31°29' E 121°24'0 0.0
2017-Dec-10 18:01N 31°29' E 121°24'0 0.0
2017-Dec-10 17:30N 31°29' E 121°24'0 0.0
2017-Dec-10 17:00N 31°29' E 121°24'0 0.0
2017-Dec-10 16:24N 31°29' E 121°24'0 0.0
2017-Dec-10 15:54N 31°29' E 121°24'0 0.0
2017-Dec-10 15:30N 31°29' E 121°24'0 0.0
2017-Dec-10 14:54N 31°29' E 121°24'0 0.0
2017-Dec-10 13:24N 31°29' E 121°24'0 0.0
2017-Dec-10 12:45N 31°29' E 121°24'0 0.0
2017-Dec-10 11:33N 31°29' E 121°24'0 0.0
2017-Dec-10 11:27N 31°29' E 121°24'0 0.0
2017-Dec-10 10:51N 31°29' E 121°24'0 0.0
2017-Dec-10 09:24N 31°29' E 121°24'24 0.9
2017-Dec-09 07:19N 31°15' E 121°47'713.1
2017-Dec-09 06:48N 31°10' E 121°53'412.5
2017-Dec-09 06:30N 31°08' E 121°56'611.6
2017-Dec-09 05:59N 31°05' E 122°02'611.5
2017-Dec-09 05:29N 31°03' E 122°09'611.6
2017-Dec-09 05:00N 31°03' E 122°15'399 8.1
2017-Dec-07 03:55N 37°42' E 121°60'7 9.8
2017-Dec-07 03:12N 37°45' E 121°51'210.3
2017-Dec-07 03:00N 37°45' E 121°49'5 9.9
2017-Dec-07 02:30N 37°47' E 121°43'5 9.8
2017-Dec-07 02:00N 37°48' E 121°37'5 9.9
2017-Dec-07 01:30N 37°50' E 121°31'510.0
2017-Dec-07 01:00N 37°51' E 121°25'5 9.9
2017-Dec-07 00:30N 37°53' E 121°19'  
2017-Dec-04 09:42N 37°32' E 119°51'0 0.0
2017-Dec-04 05:51N 37°32' E 119°51'0 0.0
2017-Dec-04 05:21N 37°32' E 119°51'0 0.0
2017-Dec-04 04:06N 37°32' E 119°51'0 0.1
2017-Dec-04 03:33N 37°32' E 119°51'0 0.1
2017-Dec-04 03:30N 37°32' E 119°51'0 0.0
2017-Dec-04 02:51N 37°32' E 119°51'0 0.0
2017-Dec-04 02:27N 37°32' E 119°51'0 0.0
2017-Dec-04 02:00N 37°32' E 119°51'0 0.0
2017-Dec-04 01:18N 37°32' E 119°51'0 0.0
2017-Dec-04 01:00N 37°32' E 119°51'0 0.0
2017-Dec-03 23:15N 37°32' E 119°51'0 0.1
2017-Dec-03 22:06N 37°32' E 119°51'0 0.0
2017-Dec-03 09:55N 37°32' E 119°51'70 8.2
2017-Dec-03 01:21N 37°56' E 121°15'510.4
2017-Dec-03 00:53N 37°55' E 121°21'410.2
2017-Dec-03 00:30N 37°53' E 121°26'510.1
2017-Dec-03 00:00N 37°52' E 121°32'510.2
2017-Dec-02 23:30N 37°50' E 121°38'510.3
2017-Dec-02 23:00N 37°49' E 121°44'510.4
2017-Dec-02 22:31N 37°47' E 121°50'  

Dump ship's entire track history